sensor_id;sensor_type;location;lat;lon;timestamp;P1;durP1;ratioP1;P2;durP2;ratioP2
49610;SDS011;35515;48.766;9.176;2023-02-04T00:01:56;4.50;;;3.30;;
49610;SDS011;35515;48.766;9.176;2023-02-04T00:04:23;6.30;;;3.85;;
49610;SDS011;35515;48.766;9.176;2023-02-04T00:06:49;5.13;;;3.35;;
49610;SDS011;35515;48.766;9.176;2023-02-04T00:09:16;3.70;;;3.10;;
49610;SDS011;35515;48.766;9.176;2023-02-04T00:11:43;4.82;;;2.85;;
49610;SDS011;35515;48.766;9.176;2023-02-04T00:14:09;3.90;;;2.70;;
49610;SDS011;35515;48.766;9.176;2023-02-04T00:16:36;3.83;;;3.17;;
49610;SDS011;35515;48.766;9.176;2023-02-04T00:19:04;3.17;;;2.65;;
49610;SDS011;35515;48.766;9.176;2023-02-04T00:21:31;3.97;;;2.88;;
49610;SDS011;35515;48.766;9.176;2023-02-04T00:23:57;3.70;;;2.47;;
49610;SDS011;35515;48.766;9.176;2023-02-04T00:26:24;2.90;;;2.17;;
49610;SDS011;35515;48.766;9.176;2023-02-04T00:28:50;3.80;;;2.55;;
49610;SDS011;35515;48.766;9.176;2023-02-04T00:31:17;5.28;;;2.70;;
49610;SDS011;35515;48.766;9.176;2023-02-04T00:33:43;2.88;;;2.20;;
49610;SDS011;35515;48.766;9.176;2023-02-04T00:36:11;3.30;;;1.90;;
49610;SDS011;35515;48.766;9.176;2023-02-04T00:38:37;3.05;;;2.03;;
49610;SDS011;35515;48.766;9.176;2023-02-04T00:41:04;2.97;;;2.15;;
49610;SDS011;35515;48.766;9.176;2023-02-04T00:43:31;2.55;;;2.05;;
49610;SDS011;35515;48.766;9.176;2023-02-04T00:45:57;4.07;;;2.30;;
49610;SDS011;35515;48.766;9.176;2023-02-04T00:48:24;2.70;;;2.00;;
49610;SDS011;35515;48.766;9.176;2023-02-04T00:50:50;2.28;;;1.90;;
49610;SDS011;35515;48.766;9.176;2023-02-04T00:53:19;2.88;;;2.28;;
49610;SDS011;35515;48.766;9.176;2023-02-04T00:55:45;3.88;;;2.10;;
49610;SDS011;35515;48.766;9.176;2023-02-04T00:58:12;3.55;;;2.20;;
49610;SDS011;35515;48.766;9.176;2023-02-04T01:00:38;3.60;;;2.45;;
49610;SDS011;35515;48.766;9.176;2023-02-04T01:03:05;3.20;;;2.38;;
49610;SDS011;35515;48.766;9.176;2023-02-04T01:05:32;2.45;;;2.10;;
49610;SDS011;35515;48.766;9.176;2023-02-04T01:07:58;6.43;;;2.90;;
49610;SDS011;35515;48.766;9.176;2023-02-04T01:10:26;3.53;;;2.70;;
49610;SDS011;35515;48.766;9.176;2023-02-04T01:12:53;4.28;;;3.03;;
49610;SDS011;35515;48.766;9.176;2023-02-04T01:15:19;4.35;;;3.35;;
49610;SDS011;35515;48.766;9.176;2023-02-04T01:17:46;7.30;;;3.88;;
49610;SDS011;35515;48.766;9.176;2023-02-04T01:20:13;5.75;;;3.40;;
49610;SDS011;35515;48.766;9.176;2023-02-04T01:22:40;4.93;;;3.17;;
49610;SDS011;35515;48.766;9.176;2023-02-04T01:25:07;4.85;;;3.70;;
49610;SDS011;35515;48.766;9.176;2023-02-04T01:27:35;4.10;;;3.08;;
49610;SDS011;35515;48.766;9.176;2023-02-04T01:30:01;5.05;;;3.45;;
49610;SDS011;35515;48.766;9.176;2023-02-04T01:32:28;4.88;;;3.17;;
49610;SDS011;35515;48.766;9.176;2023-02-04T01:34:54;4.35;;;2.90;;
49610;SDS011;35515;48.766;9.176;2023-02-04T01:37:21;4.88;;;3.05;;
49610;SDS011;35515;48.766;9.176;2023-02-04T01:39:47;3.88;;;3.00;;
49610;SDS011;35515;48.766;9.176;2023-02-04T01:42:14;4.28;;;3.15;;
49610;SDS011;35515;48.766;9.176;2023-02-04T01:44:42;4.53;;;3.08;;
49610;SDS011;35515;48.766;9.176;2023-02-04T01:47:09;3.72;;;2.15;;
49610;SDS011;35515;48.766;9.176;2023-02-04T01:49:35;2.75;;;1.98;;
49610;SDS011;35515;48.766;9.176;2023-02-04T01:52:02;4.57;;;2.30;;
49610;SDS011;35515;48.766;9.176;2023-02-04T01:54:29;2.67;;;2.25;;
49610;SDS011;35515;48.766;9.176;2023-02-04T01:56:56;5.18;;;2.53;;
49610;SDS011;35515;48.766;9.176;2023-02-04T01:59:23;2.40;;;2.05;;
49610;SDS011;35515;48.766;9.176;2023-02-04T02:01:51;2.83;;;1.75;;
49610;SDS011;35515;48.766;9.176;2023-02-04T02:04:19;3.45;;;2.35;;
49610;SDS011;35515;48.766;9.176;2023-02-04T02:06:51;4.22;;;1.95;;
49610;SDS011;35515;48.766;9.176;2023-02-04T02:09:21;3.55;;;1.80;;
49610;SDS011;35515;48.766;9.176;2023-02-04T02:11:48;4.45;;;1.80;;
49610;SDS011;35515;48.766;9.176;2023-02-04T02:14:15;4.30;;;2.05;;
49610;SDS011;35515;48.766;9.176;2023-02-04T02:16:41;4.63;;;2.05;;
49610;SDS011;35515;48.766;9.176;2023-02-04T02:19:09;2.90;;;1.60;;
49610;SDS011;35515;48.766;9.176;2023-02-04T02:21:41;3.85;;;1.80;;
49610;SDS011;35515;48.766;9.176;2023-02-04T02:24:23;5.05;;;2.03;;
49610;SDS011;35515;48.766;9.176;2023-02-04T02:26:51;4.63;;;2.10;;
49610;SDS011;35515;48.766;9.176;2023-02-04T02:29:18;7.15;;;2.20;;
49610;SDS011;35515;48.766;9.176;2023-02-04T02:31:44;5.88;;;2.13;;
49610;SDS011;35515;48.766;9.176;2023-02-04T02:34:11;4.63;;;2.30;;
49610;SDS011;35515;48.766;9.176;2023-02-04T02:36:38;4.43;;;2.10;;
49610;SDS011;35515;48.766;9.176;2023-02-04T02:39:04;6.97;;;2.55;;
49610;SDS011;35515;48.766;9.176;2023-02-04T02:41:32;6.93;;;2.60;;
49610;SDS011;35515;48.766;9.176;2023-02-04T02:43:59;8.45;;;2.97;;
49610;SDS011;35515;48.766;9.176;2023-02-04T02:46:26;5.55;;;2.67;;
49610;SDS011;35515;48.766;9.176;2023-02-04T02:48:53;7.63;;;2.20;;
49610;SDS011;35515;48.766;9.176;2023-02-04T02:51:19;6.57;;;2.30;;
49610;SDS011;35515;48.766;9.176;2023-02-04T02:53:47;9.57;;;3.05;;
49610;SDS011;35515;48.766;9.176;2023-02-04T02:56:15;5.97;;;2.70;;
49610;SDS011;35515;48.766;9.176;2023-02-04T02:58:44;7.28;;;2.13;;
49610;SDS011;35515;48.766;9.176;2023-02-04T03:01:11;8.63;;;2.60;;
49610;SDS011;35515;48.766;9.176;2023-02-04T03:03:38;8.45;;;2.20;;
49610;SDS011;35515;48.766;9.176;2023-02-04T03:06:06;4.82;;;2.30;;
49610;SDS011;35515;48.766;9.176;2023-02-04T03:08:37;9.35;;;2.30;;
49610;SDS011;35515;48.766;9.176;2023-02-04T03:11:04;5.38;;;2.38;;
49610;SDS011;35515;48.766;9.176;2023-02-04T03:13:31;5.53;;;2.40;;
49610;SDS011;35515;48.766;9.176;2023-02-04T03:16:00;7.35;;;2.50;;
49610;SDS011;35515;48.766;9.176;2023-02-04T03:18:26;7.60;;;2.20;;
49610;SDS011;35515;48.766;9.176;2023-02-04T03:20:53;5.38;;;2.25;;
49610;SDS011;35515;48.766;9.176;2023-02-04T03:23:20;7.38;;;2.80;;
49610;SDS011;35515;48.766;9.176;2023-02-04T03:25:46;5.00;;;2.50;;
49610;SDS011;35515;48.766;9.176;2023-02-04T03:28:13;6.45;;;2.60;;
49610;SDS011;35515;48.766;9.176;2023-02-04T03:30:39;5.20;;;2.28;;
49610;SDS011;35515;48.766;9.176;2023-02-04T03:33:07;7.95;;;2.90;;
49610;SDS011;35515;48.766;9.176;2023-02-04T03:35:34;8.07;;;2.92;;
49610;SDS011;35515;48.766;9.176;2023-02-04T03:38:00;7.88;;;2.65;;
49610;SDS011;35515;48.766;9.176;2023-02-04T03:40:27;6.10;;;2.40;;
49610;SDS011;35515;48.766;9.176;2023-02-04T03:42:54;6.20;;;2.53;;
49610;SDS011;35515;48.766;9.176;2023-02-04T03:45:20;5.63;;;2.38;;
49610;SDS011;35515;48.766;9.176;2023-02-04T03:47:47;7.97;;;2.50;;
49610;SDS011;35515;48.766;9.176;2023-02-04T03:50:15;5.88;;;2.67;;
49610;SDS011;35515;48.766;9.176;2023-02-04T03:52:41;5.55;;;2.20;;
49610;SDS011;35515;48.766;9.176;2023-02-04T03:55:09;6.70;;;2.85;;
49610;SDS011;35515;48.766;9.176;2023-02-04T03:57:36;4.53;;;2.60;;
49610;SDS011;35515;48.766;9.176;2023-02-04T04:00:04;4.45;;;2.33;;
49610;SDS011;35515;48.766;9.176;2023-02-04T04:02:30;5.57;;;3.08;;
49610;SDS011;35515;48.766;9.176;2023-02-04T04:04:57;6.63;;;2.78;;
49610;SDS011;35515;48.766;9.176;2023-02-04T04:07:25;6.50;;;2.88;;
49610;SDS011;35515;48.766;9.176;2023-02-04T04:09:51;7.25;;;3.17;;
49610;SDS011;35515;48.766;9.176;2023-02-04T04:12:18;6.60;;;2.70;;
49610;SDS011;35515;48.766;9.176;2023-02-04T04:14:45;8.63;;;2.67;;
49610;SDS011;35515;48.766;9.176;2023-02-04T04:17:11;6.63;;;2.80;;
49610;SDS011;35515;48.766;9.176;2023-02-04T04:19:37;8.38;;;3.05;;
49610;SDS011;35515;48.766;9.176;2023-02-04T04:22:04;7.32;;;3.13;;
49610;SDS011;35515;48.766;9.176;2023-02-04T04:24:32;6.38;;;3.58;;
49610;SDS011;35515;48.766;9.176;2023-02-04T04:26:58;6.90;;;2.85;;
49610;SDS011;35515;48.766;9.176;2023-02-04T04:29:25;5.05;;;2.70;;
49610;SDS011;35515;48.766;9.176;2023-02-04T04:31:52;5.22;;;2.67;;
49610;SDS011;35515;48.766;9.176;2023-02-04T04:34:18;5.22;;;2.70;;
49610;SDS011;35515;48.766;9.176;2023-02-04T04:36:45;5.05;;;2.58;;
49610;SDS011;35515;48.766;9.176;2023-02-04T04:39:11;5.75;;;3.03;;
49610;SDS011;35515;48.766;9.176;2023-02-04T04:41:39;5.90;;;2.85;;
49610;SDS011;35515;48.766;9.176;2023-02-04T04:44:05;5.90;;;2.92;;
49610;SDS011;35515;48.766;9.176;2023-02-04T04:46:32;5.95;;;2.80;;
49610;SDS011;35515;48.766;9.176;2023-02-04T04:48:58;4.47;;;2.63;;
49610;SDS011;35515;48.766;9.176;2023-02-04T04:51:25;6.35;;;2.78;;
49610;SDS011;35515;48.766;9.176;2023-02-04T04:53:55;6.28;;;2.95;;
49610;SDS011;35515;48.766;9.176;2023-02-04T04:56:22;5.22;;;2.70;;
49610;SDS011;35515;48.766;9.176;2023-02-04T04:58:50;4.95;;;2.50;;
49610;SDS011;35515;48.766;9.176;2023-02-04T05:01:17;4.15;;;2.63;;
49610;SDS011;35515;48.766;9.176;2023-02-04T05:03:45;4.15;;;2.70;;
49610;SDS011;35515;48.766;9.176;2023-02-04T05:06:11;6.15;;;2.72;;
49610;SDS011;35515;48.766;9.176;2023-02-04T05:08:38;5.18;;;2.83;;
49610;SDS011;35515;48.766;9.176;2023-02-04T05:11:04;5.53;;;3.15;;
49610;SDS011;35515;48.766;9.176;2023-02-04T05:13:31;5.78;;;3.03;;
49610;SDS011;35515;48.766;9.176;2023-02-04T05:15:59;8.40;;;3.30;;
49610;SDS011;35515;48.766;9.176;2023-02-04T05:18:25;6.00;;;3.17;;
49610;SDS011;35515;48.766;9.176;2023-02-04T05:20:52;7.00;;;3.47;;
49610;SDS011;35515;48.766;9.176;2023-02-04T05:23:18;5.28;;;3.70;;
49610;SDS011;35515;48.766;9.176;2023-02-04T05:25:45;5.88;;;3.35;;
49610;SDS011;35515;48.766;9.176;2023-02-04T05:28:11;5.00;;;2.47;;
49610;SDS011;35515;48.766;9.176;2023-02-04T05:30:38;8.45;;;4.13;;
49610;SDS011;35515;48.766;9.176;2023-02-04T05:33:05;6.90;;;3.63;;
49610;SDS011;35515;48.766;9.176;2023-02-04T05:35:32;5.72;;;3.20;;
49610;SDS011;35515;48.766;9.176;2023-02-04T05:37:58;7.75;;;3.90;;
49610;SDS011;35515;48.766;9.176;2023-02-04T05:40:25;11.38;;;3.75;;
49610;SDS011;35515;48.766;9.176;2023-02-04T05:42:51;7.15;;;3.58;;
49610;SDS011;35515;48.766;9.176;2023-02-04T05:45:18;7.57;;;3.72;;
49610;SDS011;35515;48.766;9.176;2023-02-04T05:47:44;8.50;;;4.00;;
49610;SDS011;35515;48.766;9.176;2023-02-04T05:50:12;11.18;;;4.03;;
49610;SDS011;35515;48.766;9.176;2023-02-04T05:52:39;10.18;;;4.82;;
49610;SDS011;35515;48.766;9.176;2023-02-04T05:55:06;12.18;;;4.10;;
49610;SDS011;35515;48.766;9.176;2023-02-04T05:57:35;9.10;;;5.03;;
49610;SDS011;35515;48.766;9.176;2023-02-04T06:00:02;8.48;;;4.90;;
49610;SDS011;35515;48.766;9.176;2023-02-04T06:02:28;9.43;;;4.45;;
49610;SDS011;35515;48.766;9.176;2023-02-04T06:04:55;9.27;;;4.38;;
49610;SDS011;35515;48.766;9.176;2023-02-04T06:07:23;9.02;;;4.15;;
49610;SDS011;35515;48.766;9.176;2023-02-04T06:09:49;10.38;;;4.28;;
49610;SDS011;35515;48.766;9.176;2023-02-04T06:12:16;9.93;;;5.03;;
49610;SDS011;35515;48.766;9.176;2023-02-04T06:14:42;11.48;;;4.43;;
49610;SDS011;35515;48.766;9.176;2023-02-04T06:17:09;16.23;;;5.25;;
49610;SDS011;35515;48.766;9.176;2023-02-04T06:19:35;16.73;;;4.57;;
49610;SDS011;35515;48.766;9.176;2023-02-04T06:22:02;10.35;;;5.32;;
49610;SDS011;35515;48.766;9.176;2023-02-04T06:24:30;8.88;;;4.47;;
49610;SDS011;35515;48.766;9.176;2023-02-04T06:26:56;13.48;;;5.13;;
49610;SDS011;35515;48.766;9.176;2023-02-04T06:29:23;15.00;;;5.00;;
49610;SDS011;35515;48.766;9.176;2023-02-04T06:31:49;9.02;;;4.93;;
49610;SDS011;35515;48.766;9.176;2023-02-04T06:34:16;11.40;;;5.88;;
49610;SDS011;35515;48.766;9.176;2023-02-04T06:36:42;12.00;;;5.75;;
49610;SDS011;35515;48.766;9.176;2023-02-04T06:39:09;11.20;;;5.53;;
49610;SDS011;35515;48.766;9.176;2023-02-04T06:41:37;11.88;;;5.38;;
49610;SDS011;35515;48.766;9.176;2023-02-04T06:44:03;10.50;;;6.15;;
49610;SDS011;35515;48.766;9.176;2023-02-04T06:46:30;13.60;;;5.90;;
49610;SDS011;35515;48.766;9.176;2023-02-04T06:48:56;14.43;;;6.03;;
49610;SDS011;35515;48.766;9.176;2023-02-04T06:51:23;10.90;;;5.25;;
49610;SDS011;35515;48.766;9.176;2023-02-04T06:53:50;13.48;;;5.45;;
49610;SDS011;35515;48.766;9.176;2023-02-04T06:56:16;11.82;;;5.72;;
49610;SDS011;35515;48.766;9.176;2023-02-04T06:58:44;16.00;;;5.70;;
49610;SDS011;35515;48.766;9.176;2023-02-04T07:01:11;8.45;;;5.47;;
49610;SDS011;35515;48.766;9.176;2023-02-04T07:03:37;11.82;;;5.97;;
49610;SDS011;35515;48.766;9.176;2023-02-04T07:06:04;18.88;;;6.88;;
49610;SDS011;35515;48.766;9.176;2023-02-04T07:08:31;15.02;;;5.88;;
49610;SDS011;35515;48.766;9.176;2023-02-04T07:10:57;15.10;;;6.18;;
49610;SDS011;35515;48.766;9.176;2023-02-04T07:13:24;16.73;;;6.32;;
49610;SDS011;35515;48.766;9.176;2023-02-04T07:15:52;16.95;;;7.32;;
49610;SDS011;35515;48.766;9.176;2023-02-04T07:18:18;15.27;;;6.45;;
49610;SDS011;35515;48.766;9.176;2023-02-04T07:20:45;11.63;;;5.68;;
49610;SDS011;35515;48.766;9.176;2023-02-04T07:23:11;11.90;;;5.72;;
49610;SDS011;35515;48.766;9.176;2023-02-04T07:25:38;17.75;;;5.80;;
49610;SDS011;35515;48.766;9.176;2023-02-04T07:28:04;16.77;;;6.68;;
49610;SDS011;35515;48.766;9.176;2023-02-04T07:30:31;14.15;;;6.30;;
49610;SDS011;35515;48.766;9.176;2023-02-04T07:32:59;12.93;;;6.18;;
49610;SDS011;35515;48.766;9.176;2023-02-04T07:35:25;18.90;;;5.80;;
49610;SDS011;35515;48.766;9.176;2023-02-04T07:37:52;11.70;;;5.85;;
49610;SDS011;35515;48.766;9.176;2023-02-04T07:40:19;17.67;;;6.38;;
49610;SDS011;35515;48.766;9.176;2023-02-04T07:42:46;16.40;;;6.13;;
49610;SDS011;35515;48.766;9.176;2023-02-04T07:45:12;8.93;;;6.30;;
49610;SDS011;35515;48.766;9.176;2023-02-04T07:47:39;16.90;;;6.82;;
49610;SDS011;35515;48.766;9.176;2023-02-04T07:50:07;14.80;;;7.10;;
49610;SDS011;35515;48.766;9.176;2023-02-04T07:52:34;19.48;;;6.38;;
49610;SDS011;35515;48.766;9.176;2023-02-04T07:55:01;13.75;;;6.15;;
49610;SDS011;35515;48.766;9.176;2023-02-04T07:57:27;13.55;;;6.35;;
49610;SDS011;35515;48.766;9.176;2023-02-04T07:59:54;14.85;;;7.07;;
49610;SDS011;35515;48.766;9.176;2023-02-04T08:02:20;17.90;;;8.07;;
49610;SDS011;35515;48.766;9.176;2023-02-04T08:04:47;16.95;;;7.00;;
49610;SDS011;35515;48.766;9.176;2023-02-04T08:07:15;13.30;;;5.97;;
49610;SDS011;35515;48.766;9.176;2023-02-04T08:09:41;15.73;;;5.30;;
49610;SDS011;35515;48.766;9.176;2023-02-04T08:12:08;15.63;;;6.32;;
49610;SDS011;35515;48.766;9.176;2023-02-04T08:14:34;11.88;;;5.75;;
49610;SDS011;35515;48.766;9.176;2023-02-04T08:17:01;18.23;;;6.60;;
49610;SDS011;35515;48.766;9.176;2023-02-04T08:19:28;16.20;;;5.90;;
49610;SDS011;35515;48.766;9.176;2023-02-04T08:21:54;13.60;;;5.15;;
49610;SDS011;35515;48.766;9.176;2023-02-04T08:24:22;17.42;;;5.35;;
49610;SDS011;35515;48.766;9.176;2023-02-04T08:26:49;16.10;;;5.65;;
49610;SDS011;35515;48.766;9.176;2023-02-04T08:29:15;13.85;;;5.68;;
49610;SDS011;35515;48.766;9.176;2023-02-04T08:31:42;13.63;;;5.72;;
49610;SDS011;35515;48.766;9.176;2023-02-04T08:34:09;11.85;;;5.80;;
49610;SDS011;35515;48.766;9.176;2023-02-04T08:36:35;15.88;;;6.07;;
49610;SDS011;35515;48.766;9.176;2023-02-04T08:39:02;16.02;;;5.63;;
49610;SDS011;35515;48.766;9.176;2023-02-04T08:41:30;15.13;;;6.40;;
49610;SDS011;35515;48.766;9.176;2023-02-04T08:43:57;18.20;;;6.68;;
49610;SDS011;35515;48.766;9.176;2023-02-04T08:46:24;18.55;;;9.05;;
49610;SDS011;35515;48.766;9.176;2023-02-04T08:48:50;16.80;;;7.63;;
49610;SDS011;35515;48.766;9.176;2023-02-04T08:51:17;14.50;;;6.70;;
49610;SDS011;35515;48.766;9.176;2023-02-04T08:53:43;15.82;;;6.05;;
49610;SDS011;35515;48.766;9.176;2023-02-04T08:56:10;14.05;;;5.82;;
49610;SDS011;35515;48.766;9.176;2023-02-04T08:58:42;13.35;;;5.82;;
49610;SDS011;35515;48.766;9.176;2023-02-04T09:01:09;16.33;;;6.38;;
49610;SDS011;35515;48.766;9.176;2023-02-04T09:03:36;16.42;;;5.78;;
49610;SDS011;35515;48.766;9.176;2023-02-04T09:06:03;14.50;;;6.30;;
49610;SDS011;35515;48.766;9.176;2023-02-04T09:08:30;14.95;;;5.53;;
49610;SDS011;35515;48.766;9.176;2023-02-04T09:10:57;24.27;;;6.45;;
49610;SDS011;35515;48.766;9.176;2023-02-04T09:13:23;12.05;;;6.15;;
49610;SDS011;35515;48.766;9.176;2023-02-04T09:15:51;14.05;;;5.90;;
49610;SDS011;35515;48.766;9.176;2023-02-04T09:18:18;14.68;;;5.72;;
49610;SDS011;35515;48.766;9.176;2023-02-04T09:20:46;15.20;;;5.15;;
49610;SDS011;35515;48.766;9.176;2023-02-04T09:23:14;17.65;;;6.53;;
49610;SDS011;35515;48.766;9.176;2023-02-04T09:25:42;11.52;;;5.53;;
49610;SDS011;35515;48.766;9.176;2023-02-04T09:28:10;13.15;;;6.35;;
49610;SDS011;35515;48.766;9.176;2023-02-04T09:30:38;16.67;;;5.97;;
49610;SDS011;35515;48.766;9.176;2023-02-04T09:33:07;12.75;;;6.07;;
49610;SDS011;35515;48.766;9.176;2023-02-04T09:35:35;17.33;;;6.35;;
49610;SDS011;35515;48.766;9.176;2023-02-04T09:38:02;16.35;;;6.00;;
49610;SDS011;35515;48.766;9.176;2023-02-04T09:40:29;16.02;;;7.82;;
49610;SDS011;35515;48.766;9.176;2023-02-04T09:42:59;24.27;;;12.32;;
49610;SDS011;35515;48.766;9.176;2023-02-04T09:45:26;14.27;;;5.78;;
49610;SDS011;35515;48.766;9.176;2023-02-04T09:47:55;15.32;;;5.40;;
49610;SDS011;35515;48.766;9.176;2023-02-04T09:50:25;14.23;;;5.78;;
49610;SDS011;35515;48.766;9.176;2023-02-04T09:52:54;13.88;;;5.03;;
49610;SDS011;35515;48.766;9.176;2023-02-04T09:55:26;11.70;;;5.05;;
49610;SDS011;35515;48.766;9.176;2023-02-04T09:57:55;14.82;;;5.22;;
49610;SDS011;35515;48.766;9.176;2023-02-04T10:00:23;12.45;;;5.47;;
49610;SDS011;35515;48.766;9.176;2023-02-04T10:02:51;11.65;;;4.15;;
49610;SDS011;35515;48.766;9.176;2023-02-04T10:05:18;10.10;;;3.70;;
49610;SDS011;35515;48.766;9.176;2023-02-04T10:07:51;11.93;;;3.92;;
49610;SDS011;35515;48.766;9.176;2023-02-04T10:10:18;15.93;;;3.92;;
49610;SDS011;35515;48.766;9.176;2023-02-04T10:12:49;15.15;;;5.22;;
49610;SDS011;35515;48.766;9.176;2023-02-04T10:15:18;15.98;;;5.07;;
49610;SDS011;35515;48.766;9.176;2023-02-04T10:17:46;10.60;;;4.45;;
49610;SDS011;35515;48.766;9.176;2023-02-04T10:20:15;15.68;;;5.38;;
49610;SDS011;35515;48.766;9.176;2023-02-04T10:22:43;18.15;;;7.55;;
49610;SDS011;35515;48.766;9.176;2023-02-04T10:25:12;16.02;;;5.53;;
49610;SDS011;35515;48.766;9.176;2023-02-04T10:27:46;14.48;;;6.38;;
49610;SDS011;35515;48.766;9.176;2023-02-04T10:30:18;16.27;;;6.18;;
49610;SDS011;35515;48.766;9.176;2023-02-04T10:32:46;21.52;;;6.35;;
49610;SDS011;35515;48.766;9.176;2023-02-04T10:35:14;15.73;;;5.65;;
49610;SDS011;35515;48.766;9.176;2023-02-04T10:37:42;18.95;;;4.90;;
49610;SDS011;35515;48.766;9.176;2023-02-04T10:40:27;14.25;;;5.10;;
49610;SDS011;35515;48.766;9.176;2023-02-04T10:42:55;12.73;;;5.30;;
49610;SDS011;35515;48.766;9.176;2023-02-04T10:45:23;13.98;;;4.93;;
49610;SDS011;35515;48.766;9.176;2023-02-04T10:47:51;11.18;;;4.00;;
49610;SDS011;35515;48.766;9.176;2023-02-04T10:50:19;14.18;;;4.10;;
49610;SDS011;35515;48.766;9.176;2023-02-04T10:52:48;16.45;;;3.70;;
49610;SDS011;35515;48.766;9.176;2023-02-04T10:55:19;11.70;;;4.03;;
49610;SDS011;35515;48.766;9.176;2023-02-04T10:57:50;15.55;;;6.13;;
49610;SDS011;35515;48.766;9.176;2023-02-04T11:00:18;15.48;;;4.28;;
49610;SDS011;35515;48.766;9.176;2023-02-04T11:02:47;16.48;;;4.50;;
49610;SDS011;35515;48.766;9.176;2023-02-04T11:05:19;10.32;;;3.88;;
49610;SDS011;35515;48.766;9.176;2023-02-04T11:07:47;12.65;;;3.45;;
49610;SDS011;35515;48.766;9.176;2023-02-04T11:10:15;13.32;;;3.90;;
49610;SDS011;35515;48.766;9.176;2023-02-04T11:12:45;16.08;;;4.38;;
49610;SDS011;35515;48.766;9.176;2023-02-04T11:15:38;16.42;;;4.65;;
49610;SDS011;35515;48.766;9.176;2023-02-04T11:18:10;13.43;;;3.63;;
49610;SDS011;35515;48.766;9.176;2023-02-04T11:20:39;13.77;;;5.20;;
49610;SDS011;35515;48.766;9.176;2023-02-04T11:23:16;12.80;;;4.10;;
49610;SDS011;35515;48.766;9.176;2023-02-04T11:26:11;11.00;;;4.47;;
49610;SDS011;35515;48.766;9.176;2023-02-04T11:28:45;24.55;;;12.48;;
49610;SDS011;35515;48.766;9.176;2023-02-04T11:31:27;17.08;;;5.57;;
49610;SDS011;35515;48.766;9.176;2023-02-04T11:34:08;17.92;;;6.93;;
49610;SDS011;35515;48.766;9.176;2023-02-04T11:36:49;11.00;;;4.07;;
49610;SDS011;35515;48.766;9.176;2023-02-04T11:39:19;12.95;;;4.38;;
49610;SDS011;35515;48.766;9.176;2023-02-04T11:41:46;12.30;;;4.47;;
49610;SDS011;35515;48.766;9.176;2023-02-04T11:44:13;17.08;;;5.45;;
49610;SDS011;35515;48.766;9.176;2023-02-04T11:46:42;18.00;;;5.38;;
49610;SDS011;35515;48.766;9.176;2023-02-04T11:49:15;12.07;;;4.50;;
49610;SDS011;35515;48.766;9.176;2023-02-04T11:51:44;19.75;;;4.45;;
49610;SDS011;35515;48.766;9.176;2023-02-04T11:54:11;13.65;;;3.92;;
49610;SDS011;35515;48.766;9.176;2023-02-04T11:56:40;14.20;;;3.70;;
49610;SDS011;35515;48.766;9.176;2023-02-04T11:59:08;13.77;;;4.13;;
49610;SDS011;35515;48.766;9.176;2023-02-04T12:01:36;14.38;;;4.28;;
49610;SDS011;35515;48.766;9.176;2023-02-04T12:04:05;16.58;;;5.53;;
49610;SDS011;35515;48.766;9.176;2023-02-04T12:06:34;16.75;;;5.25;;
49610;SDS011;35515;48.766;9.176;2023-02-04T12:09:05;13.15;;;5.68;;
49610;SDS011;35515;48.766;9.176;2023-02-04T12:11:33;10.23;;;4.43;;
49610;SDS011;35515;48.766;9.176;2023-02-04T12:14:05;13.98;;;4.30;;
49610;SDS011;35515;48.766;9.176;2023-02-04T12:16:39;17.25;;;8.25;;
49610;SDS011;35515;48.766;9.176;2023-02-04T12:19:07;20.30;;;8.98;;
49610;SDS011;35515;48.766;9.176;2023-02-04T12:21:34;11.70;;;4.85;;
49610;SDS011;35515;48.766;9.176;2023-02-04T12:24:00;12.38;;;4.72;;
49610;SDS011;35515;48.766;9.176;2023-02-04T12:26:27;18.15;;;4.35;;
49610;SDS011;35515;48.766;9.176;2023-02-04T12:28:53;11.07;;;4.13;;
49610;SDS011;35515;48.766;9.176;2023-02-04T12:31:20;15.90;;;4.50;;
49610;SDS011;35515;48.766;9.176;2023-02-04T12:33:46;13.30;;;4.38;;
49610;SDS011;35515;48.766;9.176;2023-02-04T12:36:14;14.55;;;3.63;;
49610;SDS011;35515;48.766;9.176;2023-02-04T12:38:41;10.38;;;3.40;;
49610;SDS011;35515;48.766;9.176;2023-02-04T12:41:07;13.32;;;3.55;;
49610;SDS011;35515;48.766;9.176;2023-02-04T12:43:34;13.40;;;3.88;;
49610;SDS011;35515;48.766;9.176;2023-02-04T12:46:01;10.57;;;3.75;;
49610;SDS011;35515;48.766;9.176;2023-02-04T12:48:27;12.63;;;4.57;;
49610;SDS011;35515;48.766;9.176;2023-02-04T12:50:54;7.78;;;3.00;;
49610;SDS011;35515;48.766;9.176;2023-02-04T12:53:21;10.43;;;3.28;;
49610;SDS011;35515;48.766;9.176;2023-02-04T12:55:48;20.20;;;5.28;;
49610;SDS011;35515;48.766;9.176;2023-02-04T12:58:15;12.55;;;3.38;;
49610;SDS011;35515;48.766;9.176;2023-02-04T13:00:42;13.07;;;4.07;;
49610;SDS011;35515;48.766;9.176;2023-02-04T13:03:09;8.30;;;3.53;;
49610;SDS011;35515;48.766;9.176;2023-02-04T13:05:35;9.55;;;2.83;;
49610;SDS011;35515;48.766;9.176;2023-02-04T13:08:02;14.07;;;3.50;;
49610;SDS011;35515;48.766;9.176;2023-02-04T13:10:30;11.15;;;3.72;;
49610;SDS011;35515;48.766;9.176;2023-02-04T13:12:56;13.32;;;4.93;;
49610;SDS011;35515;48.766;9.176;2023-02-04T13:15:24;10.88;;;4.55;;
49610;SDS011;35515;48.766;9.176;2023-02-04T13:17:51;11.55;;;4.43;;
49610;SDS011;35515;48.766;9.176;2023-02-04T13:20:18;12.43;;;4.07;;
49610;SDS011;35515;48.766;9.176;2023-02-04T13:22:44;16.58;;;4.35;;
49610;SDS011;35515;48.766;9.176;2023-02-04T13:25:11;11.05;;;3.83;;
49610;SDS011;35515;48.766;9.176;2023-02-04T13:27:40;10.88;;;3.90;;
49610;SDS011;35515;48.766;9.176;2023-02-04T13:30:07;13.35;;;4.20;;
49610;SDS011;35515;48.766;9.176;2023-02-04T13:32:36;10.10;;;4.18;;
49610;SDS011;35515;48.766;9.176;2023-02-04T13:35:03;22.50;;;7.30;;
49610;SDS011;35515;48.766;9.176;2023-02-04T13:37:29;12.45;;;4.80;;
49610;SDS011;35515;48.766;9.176;2023-02-04T13:39:56;16.75;;;4.70;;
49610;SDS011;35515;48.766;9.176;2023-02-04T13:42:22;15.43;;;4.75;;
49610;SDS011;35515;48.766;9.176;2023-02-04T13:44:50;17.88;;;6.30;;
49610;SDS011;35515;48.766;9.176;2023-02-04T13:47:19;23.73;;;6.57;;
49610;SDS011;35515;48.766;9.176;2023-02-04T13:49:45;16.73;;;6.15;;
49610;SDS011;35515;48.766;9.176;2023-02-04T13:52:12;12.93;;;4.80;;
49610;SDS011;35515;48.766;9.176;2023-02-04T13:54:42;17.08;;;4.68;;
49610;SDS011;35515;48.766;9.176;2023-02-04T13:57:08;14.60;;;5.20;;
49610;SDS011;35515;48.766;9.176;2023-02-04T13:59:35;27.85;;;11.05;;
49610;SDS011;35515;48.766;9.176;2023-02-04T14:02:03;17.10;;;8.00;;
49610;SDS011;35515;48.766;9.176;2023-02-04T14:04:29;19.67;;;7.22;;
49610;SDS011;35515;48.766;9.176;2023-02-04T14:06:56;13.38;;;4.70;;
49610;SDS011;35515;48.766;9.176;2023-02-04T14:09:22;15.43;;;4.25;;
49610;SDS011;35515;48.766;9.176;2023-02-04T14:11:50;14.38;;;5.03;;
49610;SDS011;35515;48.766;9.176;2023-02-04T14:14:16;17.60;;;4.60;;
49610;SDS011;35515;48.766;9.176;2023-02-04T14:16:43;14.85;;;5.18;;
49610;SDS011;35515;48.766;9.176;2023-02-04T14:19:11;11.45;;;4.45;;
49610;SDS011;35515;48.766;9.176;2023-02-04T14:21:39;15.45;;;4.88;;
49610;SDS011;35515;48.766;9.176;2023-02-04T14:24:05;13.13;;;4.55;;
49610;SDS011;35515;48.766;9.176;2023-02-04T14:26:32;16.23;;;4.82;;
49610;SDS011;35515;48.766;9.176;2023-02-04T14:28:58;13.40;;;5.45;;
49610;SDS011;35515;48.766;9.176;2023-02-04T14:31:25;12.27;;;3.70;;
49610;SDS011;35515;48.766;9.176;2023-02-04T14:33:52;12.63;;;4.90;;
49610;SDS011;35515;48.766;9.176;2023-02-04T14:36:20;20.85;;;5.18;;
49610;SDS011;35515;48.766;9.176;2023-02-04T14:38:47;12.40;;;4.50;;
49610;SDS011;35515;48.766;9.176;2023-02-04T14:41:14;12.27;;;4.65;;
49610;SDS011;35515;48.766;9.176;2023-02-04T14:43:44;13.25;;;4.78;;